createdAt,value
2019-02-18T00:00:44.758Z,101191.09
2019-02-18T00:03:14.337Z,101192.50
2019-02-18T00:05:43.769Z,101196.37
2019-02-18T00:08:13.216Z,101179.19
2019-02-18T00:10:42.622Z,101177.30
2019-02-18T00:13:12.054Z,101171.76
2019-02-18T00:15:41.510Z,101166.39
2019-02-18T00:18:10.954Z,101166.31
2019-02-18T00:20:40.358Z,101166.11
2019-02-18T00:23:09.817Z,101168.09
2019-02-18T00:25:39.345Z,101166.25
2019-02-18T00:28:08.802Z,101167.16
2019-02-18T00:33:13.341Z,101158.38
2019-02-18T00:35:54.145Z,101158.38
2019-02-18T00:41:18.132Z,101174.71
2019-02-18T00:43:47.635Z,101174.71
2019-02-18T00:46:17.156Z,101177.52
2019-02-18T00:49:07.074Z,101179.48
2019-02-18T00:57:06.450Z,101170.78
2019-02-18T00:59:35.855Z,101166.19
2019-02-18T01:02:05.381Z,101165.84
2019-02-18T01:04:35.043Z,101152.95
2019-02-18T01:07:04.442Z,101160.27
2019-02-18T01:09:33.838Z,101161.81
2019-02-18T01:14:38.642Z,101147.23
2019-02-18T01:17:08.309Z,101139.28
2019-02-18T01:19:37.766Z,101132.18
2019-02-18T01:22:07.300Z,101137.20
2019-02-18T01:24:55.875Z,101136.47
2019-02-18T01:30:16.525Z,101123.30
2019-02-18T01:32:46.017Z,101123.30
2019-02-18T01:35:54.900Z,101122.47
2019-02-18T01:38:24.425Z,101121.77
2019-02-18T01:40:54.069Z,101114.24
2019-02-18T01:43:23.781Z,101103.52
2019-02-18T01:45:53.332Z,101107.00
2019-02-18T01:48:41.804Z,101107.97
2019-02-18T01:56:45.429Z,101083.61
2019-02-18T01:59:26.601Z,101082.63
2019-02-18T02:01:56.766Z,101076.09
2019-02-18T02:04:26.202Z,101079.00
2019-02-18T02:06:55.831Z,101076.36
2019-02-18T02:09:25.540Z,101065.77
2019-02-18T02:11:57.318Z,101062.42
2019-02-18T02:14:26.725Z,101071.09
2019-02-18T02:16:56.704Z,101050.64
2019-02-18T02:19:26.106Z,101061.39
2019-02-18T02:21:55.710Z,101062.64
2019-02-18T02:24:28.408Z,101062.64
2019-02-18T02:26:57.838Z,101053.53
2019-02-18T02:29:27.267Z,101038.27
2019-02-18T02:31:56.719Z,101044.75
2019-02-18T02:34:26.391Z,101044.75
2019-02-18T02:39:44.203Z,101046.48
2019-02-18T02:42:13.660Z,101044.38
2019-02-18T02:44:43.051Z,101040.75
2019-02-18T02:47:35.034Z,101011.95
2019-02-18T02:53:18.298Z,101010.36
2019-02-18T02:55:59.671Z,101010.36
2019-02-18T02:58:29.278Z,101000.73
2019-02-18T03:00:58.871Z,101000.73
2019-02-18T03:03:28.390Z,101001.28
2019-02-18T03:05:57.908Z,101017.26
2019-02-18T03:11:16.011Z,101012.41
2019-02-18T03:13:45.449Z,100996.86
2019-02-18T03:16:14.834Z,100995.09
2019-02-18T03:18:44.488Z,100991.80
2019-02-18T03:21:13.885Z,100989.49
2019-02-18T03:23:43.270Z,100988.16
2019-02-18T03:26:12.736Z,100983.99
2019-02-18T03:29:20.231Z,100976.72
2019-02-18T03:31:49.677Z,100976.58
2019-02-18T03:34:42.247Z,100963.14
2019-02-18T03:37:11.840Z,100977.23
2019-02-18T03:39:41.246Z,100974.52
2019-02-18T03:42:10.760Z,100987.83
2019-02-18T03:44:40.179Z,100984.98
2019-02-18T03:47:09.833Z,100985.13
2019-02-18T03:49:39.312Z,100980.80
2019-02-18T03:52:08.795Z,100981.83
2019-02-18T03:57:38.452Z,100966.13
2019-02-18T04:00:08.577Z,100970.01
2019-02-18T04:03:06.555Z,100968.87
2019-02-18T04:05:36.013Z,100959.95
2019-02-18T04:08:05.433Z,100959.88
2019-02-18T04:10:54.172Z,100952.77
2019-02-18T04:13:23.628Z,100945.83
2019-02-18T04:15:55.828Z,100934.38
2019-02-18T04:18:25.422Z,100947.88
2019-02-18T04:20:56.525Z,100934.28
2019-02-18T04:23:25.929Z,100938.45
2019-02-18T04:25:55.524Z,100931.47
2019-02-18T04:28:44.004Z,100921.05
2019-02-18T04:31:14.041Z,100915.13
2019-02-18T04:33:43.504Z,100900.03
2019-02-18T04:36:19.760Z,100902.91
2019-02-18T04:38:54.086Z,100898.92
2019-02-18T04:43:55.736Z,100892.32
2019-02-18T04:49:02.661Z,100892.48
2019-02-18T04:51:32.205Z,100892.81
2019-02-18T04:54:01.635Z,100874.73
2019-02-18T04:56:31.107Z,100872.75
2019-02-18T04:59:12.022Z,100867.59
2019-02-18T05:01:42.084Z,100866.45
2019-02-18T05:04:14.089Z,100869.94
2019-02-18T05:09:29.981Z,100870.45
2019-02-18T05:11:59.443Z,100864.37
2019-02-18T05:14:29.131Z,100852.94
2019-02-18T05:16:58.549Z,100854.29
2019-02-18T05:19:27.994Z,100856.11
2019-02-18T05:22:14.479Z,100851.13
2019-02-18T05:24:43.944Z,100845.34
2019-02-18T05:27:13.361Z,100845.19
2019-02-18T05:29:42.739Z,100845.86
2019-02-18T05:32:12.232Z,100842.36
2019-02-18T05:34:41.611Z,100850.48
2019-02-18T05:37:14.804Z,100852.66
2019-02-18T05:39:44.280Z,100856.48
2019-02-18T05:42:13.739Z,100841.86
2019-02-18T05:44:43.192Z,100838.03
2019-02-18T05:47:12.832Z,100838.03
2019-02-18T05:49:42.305Z,100840.53
2019-02-18T05:52:14.702Z,100836.23
2019-02-18T05:54:44.186Z,100833.41
2019-02-18T05:57:13.622Z,100829.09
2019-02-18T06:00:03.385Z,100826.26
2019-02-18T06:02:45.380Z,100824.12
2019-02-18T06:05:14.894Z,100819.11
2019-02-18T06:07:44.277Z,100827.91
2019-02-18T06:13:03.757Z,100827.91
2019-02-18T06:15:33.287Z,100821.95
2019-02-18T06:18:02.700Z,100813.16
2019-02-18T06:20:32.301Z,100816.15
2019-02-18T06:23:01.720Z,100809.66
2019-02-18T06:25:31.118Z,100807.48
2019-02-18T06:28:00.556Z,100805.48
2019-02-18T06:30:29.974Z,100798.34
2019-02-18T06:33:01.143Z,100799.34
2019-02-18T06:35:30.792Z,100797.52
2019-02-18T06:38:00.279Z,100787.39
2019-02-18T06:40:29.736Z,100781.09
2019-02-18T06:42:59.156Z,100787.39
2019-02-18T06:51:14.024Z,100776.47
2019-02-18T06:53:57.655Z,100782.09
2019-02-18T06:56:47.005Z,100784.27
2019-02-18T07:02:17.735Z,100781.30
2019-02-18T07:05:06.046Z,100778.81
2019-02-18T07:11:00.095Z,100761.37
2019-02-18T07:19:03.949Z,100747.77
2019-02-18T07:21:54.154Z,100747.58
2019-02-18T07:24:23.881Z,100742.27
2019-02-18T07:26:53.469Z,100744.92
2019-02-18T07:32:13.424Z,100747.06
2019-02-18T07:34:42.823Z,100745.91
2019-02-18T07:37:12.333Z,100741.23
2019-02-18T07:42:16.528Z,100743.36
2019-02-18T07:47:31.434Z,100738.50
2019-02-18T07:50:20.236Z,100744.28
2019-02-18T07:55:22.662Z,100728.09
2019-02-18T08:00:37.549Z,100719.56
2019-02-18T08:03:07.677Z,100709.23
2019-02-18T08:05:37.076Z,100708.22
2019-02-18T08:08:06.527Z,100701.40
2019-02-18T08:10:35.955Z,100700.73
2019-02-18T08:13:05.440Z,100699.02
2019-02-18T08:15:35.055Z,100697.84
2019-02-18T08:18:04.452Z,100694.34
2019-02-18T08:20:33.860Z,100686.51
2019-02-18T08:23:03.713Z,100685.17
2019-02-18T08:25:33.132Z,100680.96
2019-02-18T08:28:02.612Z,100666.63
2019-02-18T08:30:32.089Z,100654.81
2019-02-18T08:33:01.490Z,100651.47
2019-02-18T08:35:30.875Z,100649.47
2019-02-18T08:38:00.474Z,100646.45
2019-02-18T08:46:06.803Z,100623.76
2019-02-18T08:48:36.458Z,100614.91
2019-02-18T08:51:07.962Z,100615.24
2019-02-18T08:53:37.407Z,100610.39
2019-02-18T08:56:10.441Z,100613.83
2019-02-18T08:58:39.900Z,100609.30
2019-02-18T09:01:09.750Z,100607.11
2019-02-18T09:06:28.077Z,100605.87
2019-02-18T09:08:57.601Z,100611.82
2019-02-18T09:11:27.053Z,100606.58
2019-02-18T09:13:56.462Z,100602.40
2019-02-18T09:16:25.885Z,100608.89
2019-02-18T09:18:55.368Z,100606.98
2019-02-18T09:24:06.533Z,100613.73
2019-02-18T09:26:36.217Z,100611.06
2019-02-18T09:29:05.730Z,100607.33
2019-02-18T09:34:12.187Z,100580.88
2019-02-18T09:36:41.745Z,100588.47
2019-02-18T09:42:01.443Z,100585.12
2019-02-18T09:44:30.905Z,100587.78
2019-02-18T09:47:00.373Z,100581.88
2019-02-18T09:49:29.929Z,100573.18
2019-02-18T09:52:00.912Z,100573.32
2019-02-18T09:54:30.468Z,100563.94
2019-02-18T09:56:59.872Z,100559.68
2019-02-18T09:59:29.293Z,100557.29
2019-02-18T10:02:11.111Z,100554.76
2019-02-18T10:04:29.989Z,100552.47
2019-02-18T10:06:59.444Z,100555.55
2019-02-18T10:09:28.873Z,100551.23
2019-02-18T10:11:58.314Z,100547.23
2019-02-18T10:14:27.834Z,100547.12
2019-02-18T10:16:57.329Z,100545.52
2019-02-18T10:19:26.835Z,100541.27
2019-02-18T10:21:56.358Z,100532.14
2019-02-18T10:24:25.864Z,100530.23
2019-02-18T10:26:55.433Z,100538.52
2019-02-18T10:29:26.590Z,100529.66
2019-02-18T10:31:56.025Z,100540.47
2019-02-18T10:34:25.430Z,100531.53
2019-02-18T10:36:56.526Z,100523.96
2019-02-18T10:39:26.003Z,100530.27
2019-02-18T10:44:44.011Z,100521.57
2019-02-18T10:47:13.499Z,100517.23
2019-02-18T10:49:42.964Z,100517.46
2019-02-18T10:52:13.126Z,100514.68
2019-02-18T10:57:31.043Z,100511.78
2019-02-18T11:00:00.486Z,100508.73
2019-02-18T11:02:29.888Z,100492.53
2019-02-18T11:07:33.850Z,100491.20
2019-02-18T11:10:03.445Z,100494.82
2019-02-18T11:12:32.875Z,100493.41
2019-02-18T11:15:02.349Z,100489.08
2019-02-18T11:17:38.660Z,100493.22
2019-02-18T11:20:03.271Z,100491.80
2019-02-18T11:22:32.787Z,100491.59
2019-02-18T11:25:02.283Z,100491.28
2019-02-18T11:27:31.721Z,100485.22
2019-02-18T11:30:01.184Z,100480.30
2019-02-18T11:32:30.626Z,100479.78
2019-02-18T11:35:00.749Z,100481.27
2019-02-18T11:37:31.351Z,100465.38
2019-02-18T11:40:01.097Z,100466.75
2019-02-18T11:42:30.542Z,100461.19
2019-02-18T11:45:00.294Z,100457.56
2019-02-18T11:47:31.407Z,100456.45
2019-02-18T11:50:01.031Z,100458.39
2019-02-18T11:52:30.970Z,100451.61
2019-02-18T11:55:00.418Z,100443.78
2019-02-18T11:57:31.653Z,100435.23
2019-02-18T12:00:01.017Z,100430.78
2019-02-18T12:02:30.757Z,100433.77
2019-02-18T12:05:00.302Z,100418.01
2019-02-18T12:07:29.669Z,100423.98
2019-02-18T12:09:59.135Z,100414.92
2019-02-18T12:12:28.598Z,100415.77
2019-02-18T12:14:58.376Z,100412.53
2019-02-18T12:17:27.846Z,100413.16
2019-02-18T12:19:57.287Z,100414.09
2019-02-18T12:22:47.066Z,100413.16
2019-02-18T12:28:05.278Z,100391.50
2019-02-18T12:30:34.710Z,100387.48
2019-02-18T12:33:04.159Z,100382.81
2019-02-18T12:35:35.131Z,100378.20
2019-02-18T12:38:17.478Z,100375.22
2019-02-18T12:40:47.109Z,100369.13
2019-02-18T12:43:16.630Z,100363.56
2019-02-18T12:46:15.291Z,100369.55
2019-02-18T12:48:36.193Z,100362.39
2019-02-18T12:54:04.548Z,100349.81
2019-02-18T12:56:25.613Z,100348.47
2019-02-18T12:58:55.574Z,100339.28
2019-02-18T13:02:29.026Z,100345.33
2019-02-18T13:04:13.619Z,100345.22
2019-02-18T13:06:43.047Z,100337.78
2019-02-18T13:09:12.843Z,100336.61
2019-02-18T13:11:44.446Z,100332.17
2019-02-18T13:14:13.871Z,100328.45
2019-02-18T13:16:43.368Z,100320.80
2019-02-18T13:19:14.051Z,100316.99
2019-02-18T13:21:45.145Z,100309.05
2019-02-18T13:24:14.823Z,100307.91
2019-02-18T13:26:44.357Z,100309.77
2019-02-18T13:29:13.888Z,100299.77
2019-02-18T13:31:43.320Z,100296.78
2019-02-18T13:34:12.818Z,100307.30
2019-02-18T13:39:17.519Z,100295.95
2019-02-18T13:41:58.519Z,100295.95
2019-02-18T13:47:21.464Z,100301.22
2019-02-18T13:49:51.299Z,100303.30
2019-02-18T13:52:39.854Z,100298.64
2019-02-18T13:55:21.119Z,100294.71
2019-02-18T13:57:57.773Z,100288.92
2019-02-18T14:05:59.490Z,100276.36
2019-02-18T14:11:28.882Z,100279.04
2019-02-18T14:13:58.589Z,100281.11
2019-02-18T14:21:52.005Z,100278.29
2019-02-18T14:26:58.406Z,100265.55
2019-02-18T14:29:27.959Z,100265.55
2019-02-18T14:31:57.390Z,100263.96
2019-02-18T14:34:45.968Z,100261.42
2019-02-18T14:37:15.421Z,100264.01
2019-02-18T14:39:47.936Z,100261.75
2019-02-18T14:42:24.312Z,100260.83
2019-02-18T14:44:48.966Z,100262.00
2019-02-18T14:47:18.624Z,100269.41
2019-02-18T14:49:48.264Z,100270.89
2019-02-18T14:55:43.134Z,100267.81
2019-02-18T14:58:12.977Z,100267.95
2019-02-18T15:00:42.343Z,100267.34
2019-02-18T15:03:11.956Z,100264.76
2019-02-18T15:11:05.343Z,100267.09
2019-02-18T15:13:34.756Z,100263.00
2019-02-18T15:16:04.276Z,100271.16
2019-02-18T15:18:33.677Z,100271.56
2019-02-18T15:21:03.172Z,100270.98
2019-02-18T15:26:35.553Z,100270.91
2019-02-18T15:29:07.356Z,100263.94
2019-02-18T15:34:39.018Z,100275.72
2019-02-18T15:37:08.543Z,100274.35
2019-02-18T15:39:37.971Z,100274.57
2019-02-18T15:42:09.266Z,100281.04
2019-02-18T15:44:38.926Z,100278.80
2019-02-18T15:47:22.983Z,100278.91
2019-02-18T15:49:39.546Z,100275.61
2019-02-18T15:55:04.630Z,100275.48
2019-02-18T15:57:45.902Z,100274.58
2019-02-18T16:00:18.047Z,100278.89
2019-02-18T16:02:48.179Z,100276.41
2019-02-18T16:08:06.092Z,100274.66
2019-02-18T16:10:35.569Z,100271.39
2019-02-18T16:13:05.231Z,100269.23
2019-02-18T16:15:34.942Z,100269.73
2019-02-18T16:18:04.602Z,100260.58
2019-02-18T16:20:34.211Z,100264.28
2019-02-18T16:23:03.764Z,100259.33
2019-02-18T16:25:33.159Z,100258.08
2019-02-18T16:28:02.569Z,100255.73
2019-02-18T16:30:32.079Z,100260.85
2019-02-18T16:35:56.971Z,100252.58
2019-02-18T16:38:26.427Z,100248.23
2019-02-18T16:40:58.178Z,100246.63
2019-02-18T16:43:29.322Z,100241.67
2019-02-18T16:46:17.673Z,100251.01
2019-02-18T16:48:47.906Z,100238.62
2019-02-18T16:51:17.337Z,100245.81
2019-02-18T16:53:50.849Z,100245.25
2019-02-18T16:56:21.317Z,100247.72
2019-02-18T16:58:53.127Z,100249.31
2019-02-18T17:06:46.743Z,100239.66
2019-02-18T17:11:57.596Z,100234.05
2019-02-18T17:14:38.186Z,100227.86
2019-02-18T17:17:07.771Z,100225.27
2019-02-18T17:19:37.181Z,100223.08
2019-02-18T17:22:06.573Z,100224.79
2019-02-18T17:24:36.170Z,100226.38
2019-02-18T17:27:05.599Z,100224.13
2019-02-18T17:29:35.077Z,100220.37
2019-02-18T17:32:04.604Z,100216.76
2019-02-18T17:34:34.046Z,100217.36
2019-02-18T17:37:03.618Z,100212.22
2019-02-18T17:39:33.176Z,100212.79
2019-02-18T17:42:02.604Z,100214.19
2019-02-18T17:44:32.095Z,100209.77
2019-02-18T17:47:01.634Z,100207.99
2019-02-18T17:49:31.037Z,100205.52
2019-02-18T17:52:01.012Z,100210.91
2019-02-18T17:57:07.044Z,100201.53
2019-02-18T17:59:39.678Z,100201.41
2019-02-18T18:02:09.143Z,100189.76
2019-02-18T18:04:38.660Z,100194.77
2019-02-18T18:07:09.160Z,100194.77
2019-02-18T18:12:38.760Z,100207.64
2019-02-18T18:15:09.015Z,100205.52
2019-02-18T18:17:38.442Z,100210.21
2019-02-18T18:20:08.462Z,100201.26
2019-02-18T18:25:26.406Z,100202.33
2019-02-18T18:27:58.100Z,100187.62
2019-02-18T18:30:27.525Z,100184.52
2019-02-18T18:32:56.940Z,100177.80
2019-02-18T18:35:26.352Z,100188.33
2019-02-18T18:37:57.651Z,100180.58
2019-02-18T18:40:27.098Z,100171.63
2019-02-18T18:42:56.518Z,100160.55
2019-02-18T18:45:26.061Z,100150.27
2019-02-18T18:47:57.529Z,100156.28
2019-02-18T18:50:27.236Z,100155.33
2019-02-18T18:52:56.768Z,100160.41
2019-02-18T18:58:01.534Z,100160.14
2019-02-18T19:03:16.617Z,100160.09
2019-02-18T19:05:46.035Z,100169.96
2019-02-18T19:08:15.460Z,100166.16
2019-02-18T19:13:20.198Z,100158.72
2019-02-18T19:15:49.994Z,100160.13
2019-02-18T19:23:42.914Z,100145.30
2019-02-18T19:26:12.583Z,100152.25
2019-02-18T19:28:42.010Z,100157.28
2019-02-18T19:31:11.471Z,100151.42
2019-02-18T19:33:40.960Z,100138.52
2019-02-18T19:36:10.455Z,100135.53
2019-02-18T19:38:39.870Z,100145.54
2019-02-18T19:41:09.491Z,100146.09
2019-02-18T19:43:51.092Z,100156.48
2019-02-18T19:46:22.170Z,100144.38
2019-02-18T19:48:52.086Z,100128.59
2019-02-18T19:51:23.226Z,100133.45
2019-02-18T19:53:54.862Z,100148.92
2019-02-18T19:56:24.563Z,100148.59
2019-02-18T19:58:55.686Z,100145.94
2019-02-18T20:01:25.807Z,100137.95
2019-02-18T20:03:55.391Z,100146.07
2019-02-18T20:07:04.452Z,100140.43
2019-02-18T20:12:47.170Z,100138.23
2019-02-18T20:18:00.418Z,100134.52
2019-02-18T20:20:29.958Z,100127.86
2019-02-18T20:23:01.406Z,100129.30
2019-02-18T20:25:30.634Z,100121.89
2019-02-18T20:28:00.142Z,100124.60
2019-02-18T20:30:29.543Z,100114.01
2019-02-18T20:32:59.083Z,100113.58
2019-02-18T20:35:28.562Z,100112.48
2019-02-18T20:37:58.036Z,100110.69
2019-02-18T20:43:06.118Z,100105.55
2019-02-18T20:50:55.739Z,100089.75
2019-02-18T20:53:44.717Z,100089.61
2019-02-18T20:56:33.064Z,100088.22
2019-02-18T20:59:02.585Z,100087.75
2019-02-18T21:01:31.985Z,100089.91
2019-02-18T21:06:49.928Z,100075.48
2019-02-18T21:09:19.345Z,100066.73
2019-02-18T21:14:37.372Z,100068.64
2019-02-18T21:17:27.553Z,100067.53
2019-02-18T21:22:31.680Z,100061.52
2019-02-18T21:27:36.046Z,100060.87
2019-02-18T21:30:05.778Z,100049.53
2019-02-18T21:32:35.158Z,100052.52
2019-02-18T21:37:40.062Z,100045.55
2019-02-18T21:40:12.733Z,100047.56
2019-02-18T21:42:42.239Z,100040.97
2019-02-18T21:45:11.772Z,100031.14
2019-02-18T21:50:27.993Z,100033.70
2019-02-18T21:52:57.636Z,100021.73
2019-02-18T21:55:27.078Z,100013.75
2019-02-18T21:57:56.549Z,100020.40
2019-02-18T22:00:26.046Z,100019.67
2019-02-18T22:05:50.967Z,100014.67
2019-02-18T22:08:20.378Z,100006.50
2019-02-18T22:10:49.995Z,99997.59
2019-02-18T22:13:19.950Z,99998.28
2019-02-18T22:15:49.463Z,100003.28
2019-02-18T22:18:18.906Z,99995.17
2019-02-18T22:20:50.123Z,99988.20
2019-02-18T22:23:38.448Z,99991.74
2019-02-18T22:26:07.888Z,99996.69
2019-02-18T22:28:37.305Z,99991.42
2019-02-18T22:31:06.800Z,99988.45
2019-02-18T22:33:36.210Z,99978.53
2019-02-18T22:36:05.608Z,99983.63
2019-02-18T22:38:35.000Z,99983.13
2019-02-18T22:41:06.205Z,99980.27
2019-02-18T22:43:35.787Z,99976.60
2019-02-18T22:46:05.193Z,99976.86
2019-02-18T22:48:34.707Z,99970.15
2019-02-18T22:51:15.863Z,99972.53
2019-02-18T22:53:45.678Z,99972.28
2019-02-18T22:56:21.437Z,99971.68
2019-02-18T22:58:51.005Z,99970.29
2019-02-18T23:01:22.274Z,99964.59
2019-02-18T23:03:51.785Z,99970.86
2019-02-18T23:06:23.285Z,99964.61
2019-02-18T23:08:52.825Z,99955.93
2019-02-18T23:11:22.760Z,99954.91
2019-02-18T23:16:26.597Z,99944.27
2019-02-18T23:18:56.066Z,99946.10
2019-02-18T23:21:25.659Z,99945.78
2019-02-18T23:23:55.391Z,99942.11
2019-02-18T23:26:26.896Z,99937.29
2019-02-18T23:28:56.402Z,99936.47
2019-02-18T23:31:25.798Z,99940.84
2019-02-18T23:34:18.425Z,99930.92
2019-02-18T23:39:44.468Z,99924.97
2019-02-18T23:42:13.921Z,99926.48
2019-02-18T23:44:43.343Z,99914.38
2019-02-18T23:47:12.782Z,99901.58
2019-02-18T23:49:42.398Z,99902.09
2019-02-18T23:52:12.160Z,99903.80
2019-02-18T23:54:41.804Z,99895.30
2019-02-18T23:57:11.484Z,99891.44
2019-02-18T23:59:40.871Z,99900.88
